Time;durP1;ratioP1;P1;durP2;ratioP2;P2;SDS_P1;SDS_P2;PMS_P1;PMS_P2;Temp;Humidity;BMP_temperature;BMP_pressure;BME280_temperature;BME280_humidity;BME280_pressure;Samples;Min_cycle;Max_cycle;Signal;HPM_P1;HPM_P2
2022/05/05 00:01:57;;;;;;;8.17;5.50;;;;;;;10.19;57.87;99150.38;2248237;79;21334;-81
2022/05/05 00:04:57;;;;;;;6.30;5.27;;;;;;;10.19;57.81;99152.55;2248685;79;20888;-81
2022/05/05 00:07:58;;;;;;;13.97;5.57;;;;;;;10.19;57.92;99151.25;2248423;79;20927;-82
2022/05/05 00:14:23;;;;;;;9.50;5.13;;;;;;;10.25;57.82;99147.03;2248764;78;20991;-81
2022/05/05 00:17:25;;;;;;;7.17;5.07;;;;;;;10.28;58.02;99143.17;2248381;79;21393;-81
2022/05/05 00:20:24;;;;;;;12.70;6.17;;;;;;;10.30;57.79;99147.98;2248474;79;20971;-82
2022/05/05 00:23:24;;;;;;;12.87;6.27;;;;;;;10.33;57.75;99148.92;2248383;79;20939;-83
2022/05/05 00:26:25;;;;;;;16.20;6.03;;;;;;;10.35;57.65;99147.64;2249481;79;20896;-79
2022/05/05 00:29:25;;;;;;;9.20;5.50;;;;;;;10.36;57.55;99148.09;2249098;78;20976;-83
2022/05/05 00:32:25;;;;;;;8.40;4.50;;;;;;;10.37;57.47;99142.02;2249446;79;21581;-81
2022/05/05 00:35:26;;;;;;;8.17;5.23;;;;;;;10.37;57.63;99143.33;2249041;79;20976;-83
2022/05/05 00:38:26;;;;;;;9.60;5.90;;;;;;;10.36;57.48;99139.84;2248964;79;20896;-82
2022/05/05 00:41:27;;;;;;;10.57;5.10;;;;;;;10.36;57.46;99135.93;2248885;79;20960;-81
2022/05/05 00:44:27;;;;;;;42.03;6.50;;;;;;;10.34;57.38;99140.67;2248918;79;20907;-78
2022/05/05 00:47:27;;;;;;;14.30;5.67;;;;;;;10.35;57.38;99139.81;2248646;79;20880;-84
2022/05/05 00:50:28;;;;;;;9.70;4.70;;;;;;;10.37;57.40;99137.69;2248886;79;21255;-83
2022/05/05 00:53:28;;;;;;;7.10;4.97;;;;;;;10.40;57.26;99143.38;2249112;79;21007;-83
2022/05/05 00:56:29;;;;;;;6.27;4.60;;;;;;;10.38;57.36;99138.14;2249064;79;20942;-83
2022/05/05 00:59:29;;;;;;;10.40;4.87;;;;;;;10.40;57.48;99137.77;2249104;79;21334;-85
2022/05/05 01:02:29;;;;;;;10.20;4.90;;;;;;;10.40;57.11;99137.77;2249101;79;21329;-83
2022/05/05 01:05:30;;;;;;;8.17;4.77;;;;;;;10.40;57.08;99140.37;2249020;79;20864;-82
2022/05/05 01:08:30;;;;;;;7.70;4.90;;;;;;;10.40;57.13;99140.37;2248566;79;20942;-83
2022/05/05 01:11:31;;;;;;;7.30;4.50;;;;;;;10.38;57.33;99135.53;2247856;79;20991;-83
2022/05/05 01:14:31;;;;;;;8.93;6.33;;;;;;;10.36;57.11;99137.23;2248921;79;20943;-82
2022/05/05 01:17:32;;;;;;;9.07;5.00;;;;;;;10.34;57.16;99129.80;2248994;79;21322;-82
2022/05/05 01:20:32;;;;;;;5.17;4.57;;;;;;;10.32;57.25;99132.81;2248637;79;20927;-82
2022/05/05 01:23:32;;;;;;;9.90;5.53;;;;;;;10.30;57.32;99131.91;2248668;79;20896;-81
2022/05/05 01:29:52;;;;;;;7.83;5.00;;;;;;;10.20;57.42;99136.09;2248298;78;21047;-82
2022/05/05 01:32:52;;;;;;;8.23;5.10;;;;;;;10.15;57.49;99135.09;2248308;79;21288;-82
2022/05/05 01:35:53;;;;;;;8.73;5.10;;;;;;;10.12;57.48;99137.64;2247974;79;20919;-81
2022/05/05 01:38:53;;;;;;;6.20;5.07;;;;;;;10.09;57.65;99134.98;2248667;79;21004;-81
2022/05/05 01:41:54;;;;;;;9.43;5.17;;;;;;;10.05;57.71;99137.50;2248499;79;21282;-81
2022/05/05 01:44:54;;;;;;;9.37;5.00;;;;;;;10.01;57.90;99138.30;2247829;79;20967;-82
2022/05/05 01:47:54;;;;;;;9.43;4.80;;;;;;;9.97;58.16;99139.09;2248765;79;20896;-80
2022/05/05 01:50:55;;;;;;;9.27;5.17;;;;;;;9.89;58.35;99133.30;2248382;79;21228;-80
2022/05/05 01:53:55;;;;;;;9.07;5.37;;;;;;;9.86;58.35;99136.28;2248854;79;20999;-81
2022/05/05 01:56:56;;;;;;;5.67;4.87;;;;;;;9.82;58.49;99133.16;2248916;79;20951;-81
2022/05/05 01:59:56;;;;;;;12.03;5.80;;;;;;;9.79;58.60;99139.62;2248629;79;20888;-82
2022/05/05 02:02:56;;;;;;;5.80;4.97;;;;;;;9.75;58.64;99140.41;2249076;79;20896;-82
2022/05/05 02:05:57;;;;;;;7.97;5.27;;;;;;;9.69;58.70;99134.65;2248886;79;20916;-83
2022/05/05 02:08:58;;;;;;;6.13;4.80;;;;;;;9.65;59.07;99138.47;2248686;79;20872;-82
2022/05/05 02:11:58;;;;;;;43.30;7.47;;;;;;;9.65;59.13;99139.77;2249129;79;20963;-78
2022/05/05 02:14:58;;;;;;;10.20;4.93;;;;;;;9.66;59.21;99131.98;2248872;79;21251;-83
2022/05/05 02:17:58;;;;;;;14.90;5.23;;;;;;;9.64;59.41;99130.19;2248974;79;20940;-82
2022/05/05 02:20:59;;;;;;;6.63;4.63;;;;;;;9.58;59.16;99130.52;2248281;79;20911;-81
2022/05/05 02:23:59;;;;;;;10.80;5.27;;;;;;;9.54;59.24;99126.10;2248818;79;20900;-82
2022/05/05 02:26:59;;;;;;;6.83;6.13;;;;;;;9.51;59.48;99127.30;2248656;79;20987;-81
2022/05/05 02:30:00;;;;;;;8.07;5.30;;;;;;;9.48;59.56;99131.58;2252746;79;21342;-82
2022/05/05 02:33:00;;;;;;;10.83;5.77;;;;;;;9.43;59.64;99128.00;2262815;79;20958;-82
2022/05/05 02:39:20;;;;;;;12.57;5.20;;;;;;;9.36;59.87;99122.20;2262757;78;20968;-82
2022/05/05 02:42:20;;;;;;;16.47;9.33;;;;;;;9.34;60.03;99126.50;2262287;79;21308;-81
2022/05/05 02:45:20;;;;;;;12.87;5.43;;;;;;;9.34;59.95;99135.20;2262440;79;20895;-81
2022/05/05 02:48:21;;;;;;;13.33;5.77;;;;;;;9.34;60.19;99135.62;2262815;79;20942;-81
2022/05/05 02:51:21;;;;;;;34.83;5.90;;;;;;;9.30;60.12;99130.77;2262181;79;21393;-80
2022/05/05 02:57:41;;;;;;;39.43;6.80;;;;;;;9.23;60.34;99143.20;2262889;78;20975;-81
2022/05/05 03:03:43;;;;;;;8.10;5.40;;;;;;;9.26;60.42;99148.48;2258083;79;20923;-84
2022/05/05 03:06:44;;;;;;;8.50;5.20;;;;;;;9.26;60.42;99147.17;2262688;79;20974;-83
2022/05/05 03:09:44;;;;;;;9.60;5.50;;;;;;;9.24;60.61;99142.36;2262547;79;20910;-82
2022/05/05 03:12:45;;;;;;;12.97;6.13;;;;;;;9.25;60.78;99151.93;2262647;79;20923;-81
2022/05/05 03:15:45;;;;;;;10.43;5.10;;;;;;;9.26;60.84;99141.97;2262784;79;20887;-83
2022/05/05 03:18:45;;;;;;;18.00;5.50;;;;;;;9.28;60.84;99145.48;2262452;79;20907;-81
2022/05/05 03:21:46;;;;;;;7.23;5.70;;;;;;;9.30;60.80;99148.13;2262328;79;20950;-81
2022/05/05 03:24:46;;;;;;;13.77;8.87;;;;;;;9.30;60.84;99147.70;2262175;79;20961;-81
2022/05/05 03:27:46;;;;;;;20.40;6.63;;;;;;;9.34;60.79;99152.55;2262038;79;20902;-81
2022/05/05 03:30:47;;;;;;;8.63;5.17;;;;;;;9.37;60.83;99144.38;2261612;77;21453;-82
2022/05/05 03:33:47;;;;;;;10.53;5.30;;;;;;;9.39;60.81;99138.78;2262138;79;20935;-83
2022/05/05 03:36:48;;;;;;;6.90;5.10;;;;;;;9.41;60.75;99147.50;2261979;79;21010;-82
2022/05/05 03:39:49;;;;;;;15.10;5.67;;;;;;;9.41;60.81;99143.59;2261780;79;21022;-81
2022/05/05 03:42:50;;;;;;;6.90;4.80;;;;;;;9.48;60.79;99145.91;2260707;79;21394;-81
2022/05/05 03:45:50;;;;;;;9.33;5.63;;;;;;;9.54;60.85;99144.34;2259836;79;20935;-82
2022/05/05 03:48:52;;;;;;;33.93;6.10;;;;;;;9.57;60.73;99141.80;2259107;79;20915;-81
2022/05/05 03:51:51;;;;;;;9.60;5.30;;;;;;;9.60;60.69;99144.02;2259696;79;20999;-82
2022/05/05 03:54:51;;;;;;;10.27;5.57;;;;;;;9.60;60.59;99147.92;2259975;79;20996;-82
2022/05/05 03:57:51;;;;;;;9.63;5.90;;;;;;;9.56;60.82;99143.95;2261053;79;20965;-83
2022/05/05 04:00:52;;;;;;;7.10;5.27;;;;;;;9.57;60.71;99152.22;2261394;79;20990;-83
2022/05/05 04:03:52;;;;;;;13.83;5.50;;;;;;;9.60;60.52;99154.02;2260318;79;20966;-82
2022/05/05 04:06:53;;;;;;;8.40;5.60;;;;;;;9.67;60.46;99161.53;2259442;79;21054;-81
2022/05/05 04:09:54;;;;;;;14.77;5.80;;;;;;;9.73;60.25;99161.66;2259718;79;20966;-81
2022/05/05 04:12:53;;;;;;;10.20;6.30;;;;;;;9.80;60.22;99168.75;2259180;79;21009;-83
2022/05/05 04:15:54;;;;;;;11.37;5.50;;;;;;;9.89;60.21;99166.33;2259338;79;20982;-82
2022/05/05 04:18:54;;;;;;;88.00;10.30;;;;;;;10.01;60.05;99165.69;2259598;79;20969;-81
2022/05/05 04:21:55;;;;;;;8.37;5.43;;;;;;;10.11;59.87;99169.80;2259117;79;21598;-84
2022/05/05 04:24:55;;;;;;;9.77;5.80;;;;;;;10.23;59.57;99169.60;2259361;79;20938;-80
2022/05/05 04:27:55;;;;;;;11.13;5.67;;;;;;;10.36;59.44;99168.97;2260660;79;20958;-82
2022/05/05 04:30:56;;;;;;;14.00;5.10;;;;;;;10.51;59.08;99166.66;2261267;78;20947;-82
2022/05/05 04:33:57;;;;;;;6.70;5.03;;;;;;;10.72;58.73;99164.41;2261133;78;21030;-82
2022/05/05 04:36:58;;;;;;;9.33;4.80;;;;;;;10.92;58.13;99167.34;2260027;79;22039;-81
2022/05/05 04:39:58;;;;;;;8.30;5.47;;;;;;;11.10;57.78;99173.27;2259514;79;20978;-82
2022/05/05 04:42:58;;;;;;;9.67;5.37;;;;;;;11.28;57.28;99175.30;2259868;79;20962;-82
2022/05/05 04:45:58;;;;;;;74.07;7.30;;;;;;;11.48;56.97;99183.86;2259159;79;21419;-79
2022/05/05 04:48:59;;;;;;;15.50;5.40;;;;;;;11.67;56.40;99179.75;2259177;79;20962;-80
2022/05/05 04:51:59;;;;;;;13.00;10.57;;;;;;;11.85;56.15;99182.19;2259447;79;20982;-80
2022/05/05 04:55:00;;;;;;;10.95;5.42;;;;;;;11.96;55.74;99189.30;2258745;79;21910;-81
2022/05/05 04:58:00;;;;;;;8.93;5.53;;;;;;;12.08;55.39;99191.17;2259429;79;20966;-81
2022/05/05 05:01:00;;;;;;;5.47;4.72;;;;;;;12.29;55.05;99184.02;2259873;79;20899;-81
2022/05/05 05:04:02;;;;;;;11.78;5.50;;;;;;;12.43;54.41;99183.72;2259208;79;20986;-81
2022/05/05 05:07:01;;;;;;;9.28;5.30;;;;;;;12.57;54.07;99179.50;2258914;79;20986;-81
2022/05/05 05:10:02;;;;;;;10.43;5.12;;;;;;;12.67;53.55;99182.64;2259547;79;20974;-79
2022/05/05 05:13:02;;;;;;;9.53;5.53;;;;;;;12.77;53.79;99182.29;2258613;79;21311;-80
2022/05/05 05:16:02;;;;;;;12.37;5.40;;;;;;;12.93;53.23;99179.36;2259381;79;21334;-80
2022/05/05 05:19:03;;;;;;;9.55;5.22;;;;;;;13.09;53.01;99185.19;2259683;79;20947;-81
2022/05/05 05:22:05;;;;;;;8.70;5.40;;;;;;;13.30;52.94;99189.30;2259175;79;20942;-80
2022/05/05 05:25:04;;;;;;;13.93;5.37;;;;;;;13.48;52.04;99183.72;2259578;79;21319;-81
2022/05/05 05:28:04;;;;;;;10.03;5.62;;;;;;;13.59;52.03;99187.28;2259382;79;20974;-81
2022/05/05 05:31:04;;;;;;;21.95;5.85;;;;;;;13.74;51.38;99186.47;2260700;77;21018;-81
2022/05/05 05:34:05;;;;;;;67.78;8.90;;;;;;;13.73;51.22;99180.78;2260116;79;21421;-79
2022/05/05 05:37:05;;;;;;;14.43;6.15;;;;;;;13.83;51.43;99186.08;2260961;79;21006;-81
2022/05/05 05:40:06;;;;;;;9.30;5.47;;;;;;;13.88;51.00;99184.39;2260602;79;21347;-80
2022/05/05 05:43:06;;;;;;;12.43;5.70;;;;;;;14.05;50.92;99187.50;2260722;79;20939;-81
2022/05/05 05:46:07;;;;;;;10.85;5.42;;;;;;;14.21;50.74;99186.68;2260982;79;20946;-81
2022/05/05 05:49:09;;;;;;;11.35;5.22;;;;;;;14.41;50.05;99187.59;2260410;79;20966;-80
2022/05/05 05:52:07;;;;;;;9.98;5.40;;;;;;;14.58;49.74;99184.59;2260295;79;20996;-83
2022/05/05 05:55:08;;;;;;;8.33;4.55;;;;;;;14.78;49.80;99190.34;2260765;79;21017;-81
2022/05/05 05:58:08;;;;;;;51.50;7.75;;;;;;;15.01;49.76;99195.16;2260602;79;20962;-82
2022/05/05 06:01:09;;;;;;;65.35;9.13;;;;;;;15.19;49.27;99198.20;2260960;79;20939;-81
2022/05/05 06:04:09;;;;;;;15.88;6.40;;;;;;;15.40;48.93;99193.35;2259972;79;21014;-83
2022/05/05 06:07:09;;;;;;;23.90;6.92;;;;;;;15.44;48.72;99195.97;2261036;79;20966;-81
2022/05/05 06:10:10;;;;;;;7.65;5.28;;;;;;;15.51;48.12;99194.20;2260376;79;21322;-79
2022/05/05 06:13:10;;;;;;;8.28;5.50;;;;;;;15.62;47.89;99197.75;2260951;79;20942;-82
2022/05/05 06:16:11;;;;;;;6.15;4.83;;;;;;;15.71;47.57;99196.41;2261372;79;20899;-82
2022/05/05 06:19:14;;;;;;;18.02;5.55;;;;;;;15.86;47.42;99198.98;2260296;79;20935;-80
2022/05/05 06:22:20;;;;;;;10.50;5.17;;;;;;;15.95;47.36;99200.70;2260262;79;20970;-82
2022/05/05 06:25:23;;;;;;;14.90;5.60;;;;;;;16.11;47.41;99193.61;2259394;79;20971;-80
2022/05/05 06:28:21;;;;;;;9.20;5.60;;;;;;;16.35;47.30;99198.75;2259242;79;20990;-82
2022/05/05 06:31:22;;;;;;;65.22;8.98;;;;;;;16.64;46.88;99204.31;2261075;79;21026;-80
2022/05/05 06:34:22;;;;;;;7.50;5.70;;;;;;;16.84;46.16;99203.76;2260959;79;20888;-80
2022/05/05 06:37:25;;;;;;;8.13;5.20;;;;;;;16.93;45.74;99197.53;2260701;79;21002;-80
2022/05/05 06:40:25;;;;;;;7.30;5.77;;;;;;;17.00;45.54;99195.28;2260360;79;20931;-79
2022/05/05 06:43:26;;;;;;;13.55;5.80;;;;;;;17.22;45.12;99195.96;2261661;78;21009;-79
2022/05/05 06:46:27;;;;;;;10.18;5.15;;;;;;;17.45;44.83;99200.61;2261835;79;20954;-82
2022/05/05 06:49:27;;;;;;;13.05;5.47;;;;;;;17.55;44.59;99197.42;2261441;79;20931;-81
2022/05/05 06:52:27;;;;;;;110.25;12.10;;;;;;;17.70;44.06;99201.25;2261389;79;20962;-81
2022/05/05 06:55:28;;;;;;;11.50;6.05;;;;;;;17.82;44.08;99204.62;2261253;79;21796;-81
2022/05/05 06:58:28;;;;;;;7.78;5.28;;;;;;;18.01;44.02;99209.69;2260764;79;20961;-82
2022/05/05 07:08:06;;;;;;;12.30;6.55;;;;;;;18.65;43.37;99205.78;2260487;78;20974;-81
2022/05/05 07:11:06;;;;;;;8.83;5.33;;;;;;;18.84;42.22;99211.66;2260671;79;21003;-82
2022/05/05 07:14:07;;;;;;;23.23;6.47;;;;;;;18.89;42.08;99209.81;2260057;79;20954;-80
2022/05/05 07:17:08;;;;;;;9.88;5.83;;;;;;;18.97;40.84;99209.25;2259800;79;20997;-82
2022/05/05 07:20:08;;;;;;;9.18;5.67;;;;;;;19.04;40.54;99216.19;2259460;79;20930;-79
2022/05/05 07:23:12;;;;;;;8.93;5.78;;;;;;;19.05;40.79;99213.09;2259398;79;21211;-80
2022/05/05 07:26:08;;;;;;;15.03;5.30;;;;;;;19.19;40.37;99215.09;2259870;79;20946;-80
2022/05/05 07:29:09;;;;;;;7.00;5.37;;;;;;;19.32;40.23;99209.13;2259921;79;20967;-81
2022/05/05 07:32:09;;;;;;;10.35;5.67;;;;;;;19.49;40.10;99215.00;2252220;77;20971;-79
2022/05/05 07:35:11;;;;;;;15.58;6.15;;;;;;;19.60;39.97;99213.51;2245705;79;20966;-79
2022/05/05 07:38:10;;;;;;;7.28;5.95;;;;;;;19.69;40.33;99212.88;2245556;79;21001;-80
2022/05/05 07:41:11;;;;;;;9.58;5.12;;;;;;;19.85;40.14;99207.28;2246961;79;20927;-80
2022/05/05 07:44:11;;;;;;;5.65;5.15;;;;;;;19.97;39.82;99209.27;2247124;79;20963;-79
2022/05/05 07:47:11;;;;;;;11.20;5.45;;;;;;;20.11;39.21;99198.84;2246344;79;21010;-80
2022/05/05 07:50:12;;;;;;;10.93;6.08;;;;;;;20.25;39.69;99203.39;2246085;79;21559;-81
2022/05/05 07:53:12;;;;;;;8.00;5.40;;;;;;;20.41;38.76;99196.88;2246020;79;20951;-80
2022/05/05 07:56:12;;;;;;;8.58;5.75;;;;;;;20.56;38.96;99199.19;2246203;79;21030;-81
2022/05/05 07:59:13;;;;;;;6.17;5.00;;;;;;;20.71;38.74;99195.77;2246403;79;20931;-81
2022/05/05 08:02:14;;;;;;;6.28;5.47;;;;;;;20.81;37.92;99198.19;2245666;79;20939;-81
2022/05/05 08:05:14;;;;;;;6.55;5.40;;;;;;;20.94;38.24;99194.33;2245456;79;21045;-80
2022/05/05 08:08:14;;;;;;;8.65;4.90;;;;;;;21.05;37.75;99189.22;2244455;79;21002;-81
2022/05/05 08:11:14;;;;;;;9.68;5.37;;;;;;;21.13;37.50;99193.42;2244157;79;21379;-79
2022/05/05 08:14:15;;;;;;;16.52;5.58;;;;;;;21.27;37.59;99193.10;2244566;79;20982;-81
2022/05/05 08:17:15;;;;;;;21.42;6.67;;;;;;;21.35;37.60;99194.23;2244954;79;21006;-80
2022/05/05 08:20:16;;;;;;;9.30;4.90;;;;;;;21.50;37.48;99192.03;2245190;79;21226;-80
2022/05/05 08:23:16;;;;;;;8.25;5.08;;;;;;;21.65;37.25;99191.20;2245622;79;20958;-82
2022/05/05 08:29:35;;;;;;;11.20;5.90;;;;;;;21.92;37.03;99187.35;2247529;78;20966;-80
2022/05/05 08:32:36;;;;;;;5.70;4.95;;;;;;;22.03;36.79;99194.18;2247204;78;21005;-81
2022/05/05 08:35:36;;;;;;;8.20;5.10;;;;;;;22.05;36.47;99189.23;2246247;79;20935;-80
2022/05/05 08:38:37;;;;;;;6.80;5.42;;;;;;;22.09;36.17;99186.90;2245895;79;21006;-80
2022/05/05 08:41:37;;;;;;;31.27;6.78;;;;;;;22.13;36.71;99189.88;2247340;79;21002;-81
2022/05/05 08:44:38;;;;;;;7.78;5.70;;;;;;;22.28;36.11;99189.01;2247007;78;20987;-80
2022/05/05 08:47:38;;;;;;;53.30;11.00;;;;;;;22.28;36.38;99184.56;2246534;79;20935;-81
2022/05/05 08:50:38;;;;;;;280.32;24.80;;;;;;;22.31;35.68;99194.23;2246193;79;21454;-81
2022/05/05 08:53:39;;;;;;;20.40;5.85;;;;;;;22.31;36.07;99190.25;2246425;79;20986;-80
2022/05/05 08:56:39;;;;;;;8.50;5.45;;;;;;;22.45;36.02;99194.69;2246633;79;20916;-82
2022/05/05 08:59:40;;;;;;;6.72;5.10;;;;;;;22.41;35.95;99187.26;2246490;79;20935;-83
2022/05/05 09:02:40;;;;;;;10.50;5.78;;;;;;;22.52;36.54;99189.59;2246458;79;20939;-82
2022/05/05 09:05:40;;;;;;;7.62;6.20;;;;;;;22.65;36.30;99189.65;2247275;79;20962;-84
2022/05/05 09:08:41;;;;;;;11.43;5.45;;;;;;;22.75;36.20;99187.11;2246170;79;20951;-85
2022/05/05 09:11:41;;;;;;;8.53;5.90;;;;;;;22.71;36.47;99188.58;2245530;79;20994;-82
2022/05/05 09:14:43;;;;;;;7.00;6.28;;;;;;;22.92;36.10;99190.59;2246035;79;20983;-83
2022/05/05 09:17:42;;;;;;;10.32;5.30;;;;;;;23.01;35.76;99189.41;2246825;79;20907;-82
2022/05/05 09:20:43;;;;;;;7.03;5.60;;;;;;;23.00;36.05;99193.87;2246363;79;20959;-83
2022/05/05 09:27:03;;;;;;;9.53;5.08;;;;;;;23.08;35.10;99198.94;2246045;78;20956;-83
2022/05/05 09:30:03;;;;;;;9.48;5.60;;;;;;;23.15;35.51;99199.14;2245122;79;20951;-83
2022/05/05 09:33:03;;;;;;;8.93;5.15;;;;;;;23.26;35.23;99200.98;2240652;77;20983;-82
2022/05/05 09:36:04;;;;;;;12.30;5.30;;;;;;;23.37;35.51;99204.15;2238807;79;20998;-83
2022/05/05 09:39:04;;;;;;;10.03;5.22;;;;;;;23.51;34.92;99198.38;2238251;79;21031;-83
2022/05/05 09:42:05;;;;;;;6.03;5.15;;;;;;;23.55;34.35;99206.70;2238350;79;20963;-83
2022/05/05 09:45:05;;;;;;;19.70;6.62;;;;;;;23.64;34.26;99198.84;2240044;79;20888;-79
2022/05/05 09:48:07;;;;;;;31.35;6.12;;;;;;;23.72;34.48;99193.65;2239238;79;21287;-83
2022/05/05 09:51:06;;;;;;;8.65;5.25;;;;;;;23.92;34.70;99194.26;2238617;79;20911;-81
2022/05/05 09:57:44;;;;;;;34.30;7.42;;;;;;;23.87;33.84;99198.89;2239386;79;20923;-83
2022/05/05 10:00:45;;;;;;;7.70;5.15;;;;;;;23.90;33.86;99192.11;2239622;79;20931;-82
2022/05/05 10:04:05;;;;;;;194.17;54.98;;;;;;;24.03;33.82;99191.20;2239157;79;20963;-78
2022/05/05 10:07:03;;;;;;;161.88;17.17;;;;;;;24.05;34.03;99188.88;2237875;79;20935;-81
2022/05/05 10:10:03;;;;;;;12.33;6.62;;;;;;;24.11;33.99;99189.11;2238683;79;21019;-82
2022/05/05 10:13:03;;;;;;;10.20;5.85;;;;;;;24.17;33.73;99184.02;2239227;79;21850;-83
2022/05/05 10:16:04;;;;;;;7.05;5.37;;;;;;;24.28;33.67;99185.41;2239961;79;20942;-83
2022/05/05 10:19:06;;;;;;;10.98;5.22;;;;;;;24.28;33.54;99182.73;2240488;79;20975;-84
2022/05/05 10:22:05;;;;;;;21.37;7.42;;;;;;;24.19;33.86;99177.69;2240281;79;21351;-81
2022/05/05 10:25:08;;;;;;;7.17;5.70;;;;;;;24.17;34.04;99182.21;2240577;79;20998;-81
2022/05/05 10:28:08;;;;;;;15.18;5.53;;;;;;;24.22;33.85;99175.38;2240726;79;20934;-80
2022/05/05 10:31:08;;;;;;;10.82;5.35;;;;;;;24.22;33.83;99176.70;2239835;79;21831;-81
2022/05/05 10:34:09;;;;;;;31.50;7.08;;;;;;;24.17;33.99;99177.34;2252953;78;21024;-79
2022/05/05 10:37:09;;;;;;;151.75;15.85;;;;;;;24.45;33.28;99174.08;2252840;79;20966;-79
2022/05/05 10:40:10;;;;;;;7.78;5.42;;;;;;;24.68;33.97;99173.16;2252204;79;20998;-83
2022/05/05 10:43:10;;;;;;;19.20;6.75;;;;;;;24.82;33.30;99161.92;2253008;79;21715;-79
2022/05/05 10:46:10;;;;;;;9.88;5.17;;;;;;;24.89;32.81;99167.42;2252457;79;21275;-81
2022/05/05 10:49:11;;;;;;;25.10;6.12;;;;;;;24.93;32.60;99171.70;2253685;79;20979;-80
2022/05/05 10:52:11;;;;;;;40.60;14.43;;;;;;;25.05;31.61;99167.22;2253754;79;20954;-79
2022/05/05 10:55:12;;;;;;;9.98;5.53;;;;;;;25.17;31.33;99173.41;2253208;79;20958;-78
2022/05/05 10:58:12;;;;;;;5.58;5.03;;;;;;;25.27;30.46;99164.54;2252737;79;20935;-80
2022/05/05 11:01:13;;;;;;;6.22;5.22;;;;;;;25.12;31.12;99162.48;2253193;79;20868;-79
2022/05/05 11:04:17;;;;;;;10.08;4.87;;;;;;;25.31;30.62;99159.47;2252640;79;21022;-78
2022/05/05 11:07:16;;;;;;;;;;;;;;;25.47;31.28;99155.66;2254382;79;20950;-79
2022/05/05 11:10:17;;;;;;;35.17;6.33;;;;;;;25.50;30.86;99160.41;2251534;79;20489;-79
2022/05/05 11:13:17;;;;;;;7.60;6.15;;;;;;;25.68;30.35;99156.95;2251719;79;20978;-80
2022/05/05 11:22:37;;;;;;;14.55;6.10;;;;;;;26.06;29.74;99150.36;2250281;79;21973;-80
2022/05/05 11:25:39;;;;;;;13.28;5.78;;;;;;;26.07;29.21;99156.58;2251667;79;20966;-79
2022/05/05 11:28:38;;;;;;;5.42;4.97;;;;;;;26.10;29.17;99151.09;2251056;79;21016;-79
2022/05/05 11:31:38;;;;;;;6.83;5.30;;;;;;;26.15;28.75;99159.77;2250493;78;21911;-80
2022/05/05 11:34:40;;;;;;;7.15;5.20;;;;;;;25.99;28.98;99156.90;2243075;79;20966;-79
2022/05/05 11:37:39;;;;;;;8.93;5.30;;;;;;;26.03;29.26;99155.38;2243998;79;20997;-78
2022/05/05 11:40:41;;;;;;;24.65;5.85;;;;;;;26.28;29.03;99143.53;2243715;79;21417;-79
2022/05/05 11:46:59;;;;;;;13.48;5.47;;;;;;;26.48;28.72;99147.50;2244294;78;20962;-76
2022/05/05 11:49:59;;;;;;;8.75;5.40;;;;;;;26.44;28.53;99139.69;2244349;78;21339;-78
2022/05/05 11:53:00;;;;;;;8.35;5.42;;;;;;;26.39;28.99;99141.25;2245056;79;20979;-81
2022/05/05 11:56:00;;;;;;;11.40;4.70;;;;;;;26.46;29.10;99133.32;2246894;79;20915;-81
2022/05/05 12:02:19;;;;;;;12.35;5.78;;;;;;;26.45;28.16;99136.94;2245925;78;20997;-81
2022/05/05 12:05:21;;;;;;;9.45;4.97;;;;;;;26.48;28.11;99134.12;2245555;79;20978;-81
2022/05/05 12:08:20;;;;;;;8.68;5.60;;;;;;;26.49;28.13;99127.82;2245536;79;21966;-80
2022/05/05 12:11:21;;;;;;;6.10;5.47;;;;;;;26.36;27.92;99131.16;2245794;79;20998;-83
2022/05/05 12:14:22;;;;;;;5.10;4.70;;;;;;;26.29;28.12;99123.86;2245326;79;20992;-82
2022/05/05 12:17:21;;;;;;;5.60;5.10;;;;;;;26.49;27.95;99122.94;2245145;79;20989;-84
2022/05/05 12:20:22;;;;;;;5.37;4.97;;;;;;;26.61;27.77;99124.55;2245930;79;20900;-82
2022/05/05 12:23:26;;;;;;;5.70;5.20;;;;;;;26.81;27.61;99118.67;2222613;79;21015;-83
2022/05/05 12:26:25;;;;;;;7.37;5.12;;;;;;;26.83;27.39;99116.31;2244458;79;20970;-82
2022/05/05 12:29:25;;;;;;;9.75;5.35;;;;;;;26.76;27.36;99119.38;2245073;79;21030;-85
2022/05/05 12:32:25;;;;;;;7.05;4.87;;;;;;;26.87;27.31;99107.19;2244675;77;21597;-82
2022/05/05 12:35:26;;;;;;;14.83;6.37;;;;;;;26.87;27.31;99107.19;2244789;78;21253;-85
2022/05/05 12:38:27;;;;;;;6.42;5.25;;;;;;;27.00;27.29;99106.16;2245931;79;21373;-85
2022/05/05 12:41:27;;;;;;;24.23;5.47;;;;;;;27.03;27.34;99102.45;2245209;79;21045;-84
2022/05/05 12:44:30;;;;;;;5.67;5.17;;;;;;;26.99;26.88;99103.09;2245974;79;20947;-86
2022/05/05 12:47:31;;;;;;;5.92;5.42;;;;;;;27.10;27.02;99106.55;2246993;79;20927;-84
2022/05/05 12:50:31;;;;;;;9.28;5.20;;;;;;;27.15;26.11;99102.69;2246897;79;20994;-82
2022/05/05 12:59:55;;;;;;;;;;;;;;;27.37;26.58;99100.23;2248905;79;20908;-84
2022/05/05 13:02:54;;;;;;;8.90;5.03;;;;;;;27.46;25.85;99093.91;2246151;79;20666;-84
2022/05/05 13:05:55;;;;;;;6.62;4.67;;;;;;;27.49;25.98;99086.18;2246169;79;20958;-80
2022/05/05 13:08:55;;;;;;;6.92;4.97;;;;;;;27.54;25.73;99088.14;2246764;79;20927;-83
2022/05/05 13:11:55;;;;;;;12.00;5.30;;;;;;;27.56;25.60;99090.27;2247230;79;21070;-80
2022/05/05 13:14:56;;;;;;;7.28;5.62;;;;;;;27.55;25.83;99080.49;2245813;79;20966;-82
2022/05/05 13:17:56;;;;;;;6.25;5.53;;;;;;;27.67;25.61;99083.89;2245139;79;21307;-82
2022/05/05 13:20:56;;;;;;;5.53;5.03;;;;;;;27.61;25.73;99082.88;2245472;79;21010;-82
2022/05/05 13:23:57;;;;;;;7.35;4.72;;;;;;;27.69;25.81;99077.97;2245327;79;20978;-84
2022/05/05 13:26:57;;;;;;;5.72;4.95;;;;;;;27.72;26.01;99075.12;2244914;79;21497;-83
2022/05/05 13:29:58;;;;;;;7.90;5.22;;;;;;;27.38;26.37;99081.39;2244755;79;20962;-82
2022/05/05 13:32:58;;;;;;;8.55;5.50;;;;;;;27.41;26.27;99075.87;2250712;78;21034;-83
2022/05/05 13:35:59;;;;;;;9.00;5.97;;;;;;;27.41;26.09;99077.20;2260448;78;21002;-83
2022/05/05 13:38:59;;;;;;;8.45;5.05;;;;;;;27.20;26.39;99083.22;2260584;79;20985;-82
2022/05/05 13:41:59;;;;;;;66.67;7.30;;;;;;;27.06;26.75;99080.39;2260521;79;20930;-83
2022/05/05 13:45:00;;;;;;;16.35;5.62;;;;;;;26.75;26.74;99069.44;2259823;79;20989;-82
2022/05/05 13:48:00;;;;;;;10.63;5.40;;;;;;;26.41;27.47;99069.78;2259463;79;21001;-83
2022/05/05 13:51:02;;;;;;;7.92;4.95;;;;;;;26.59;27.66;99071.55;2259239;79;20977;-82
2022/05/05 13:54:01;;;;;;;7.03;5.03;;;;;;;26.77;27.67;99071.57;2259735;79;20982;-82
2022/05/05 13:57:01;;;;;;;7.50;5.20;;;;;;;26.81;27.74;99075.83;2259788;79;21002;-82
2022/05/05 14:00:02;;;;;;;14.10;5.00;;;;;;;26.70;27.56;99078.17;2260826;79;21187;-78
2022/05/05 14:03:02;;;;;;;13.28;5.50;;;;;;;26.52;27.86;99074.13;2261092;79;21416;-83
2022/05/05 14:06:03;;;;;;;10.03;5.15;;;;;;;26.47;27.93;99073.97;2260004;79;20958;-82
2022/05/05 14:12:22;;;;;;;7.78;4.87;;;;;;;27.05;27.64;99070.63;2261536;78;20978;-83
2022/05/05 14:15:22;;;;;;;7.58;5.10;;;;;;;27.25;27.09;99062.88;2261957;79;20969;-83
2022/05/05 14:18:24;;;;;;;5.08;4.60;;;;;;;27.25;26.69;99063.75;2261339;79;20927;-84
2022/05/05 14:21:24;;;;;;;6.83;4.25;;;;;;;27.29;26.43;99063.98;2261143;79;20950;-83
2022/05/05 14:24:24;;;;;;;7.15;4.10;;;;;;;27.39;25.83;99060.34;2260733;79;20943;-83
2022/05/05 14:27:25;;;;;;;9.03;4.85;;;;;;;27.41;25.90;99067.83;2260932;79;21353;-83
2022/05/05 14:30:25;;;;;;;5.62;5.05;;;;;;;27.42;26.53;99061.99;2262001;79;21002;-82
2022/05/05 14:33:25;;;;;;;6.97;4.90;;;;;;;27.39;26.47;99063.02;2261588;78;20951;-83
2022/05/05 14:36:26;;;;;;;7.33;4.67;;;;;;;27.23;26.59;99057.61;2258778;79;21331;-83
2022/05/05 14:39:26;;;;;;;6.65;4.33;;;;;;;27.20;26.79;99055.09;2258746;79;20915;-83
2022/05/05 14:42:26;;;;;;;7.55;4.72;;;;;;;27.13;26.82;99061.71;2259318;79;20998;-84
2022/05/05 14:45:28;;;;;;;9.10;5.05;;;;;;;26.99;27.16;99066.92;2258624;79;20955;-82
2022/05/05 14:48:28;;;;;;;66.33;8.60;;;;;;;27.05;27.16;99065.73;2258543;79;20947;-82
2022/05/05 14:51:28;;;;;;;7.78;4.30;;;;;;;27.08;27.35;99064.23;2259181;79;20931;-83
2022/05/05 14:54:29;;;;;;;4.95;4.50;;;;;;;26.93;26.67;99068.55;2259994;79;20975;-83
2022/05/05 14:57:29;;;;;;;5.78;4.47;;;;;;;26.78;26.62;99061.25;2258459;79;20954;-81
2022/05/05 15:00:31;;;;;;;11.53;5.20;;;;;;;26.66;26.76;99063.61;2237558;79;21002;-83
2022/05/05 15:03:34;;;;;;;6.80;5.10;;;;;;;26.45;26.81;99062.47;2236497;79;20966;-81